createdAt,value
2022-12-18T00:00:36.556Z,96.41
2022-12-18T00:01:36.618Z,96.61
2022-12-18T00:02:36.645Z,96.72
2022-12-18T00:03:36.817Z,96.61
2022-12-18T00:04:36.553Z,96.61
2022-12-18T00:05:36.748Z,96.55
2022-12-18T00:06:36.526Z,97.08
2022-12-18T00:07:36.484Z,97.29
2022-12-18T00:08:36.484Z,97.50
2022-12-18T00:09:39.810Z,97.71
2022-12-18T00:10:36.768Z,97.92
2022-12-18T00:11:36.478Z,97.81
2022-12-18T00:12:36.438Z,97.61
2022-12-18T00:13:36.763Z,97.29
2022-12-18T00:14:36.424Z,97.39
2022-12-18T00:15:36.399Z,97.39
2022-12-18T00:16:36.459Z,97.29
2022-12-18T00:17:36.422Z,97.50
2022-12-18T00:18:36.809Z,97.39
2022-12-18T00:19:36.388Z,97.35
2022-12-18T00:20:36.655Z,97.03
2022-12-18T00:21:36.674Z,96.77
2022-12-18T00:22:36.335Z,96.66
2022-12-18T00:23:36.740Z,96.97
2022-12-18T00:24:36.595Z,96.77
2022-12-18T00:25:36.295Z,96.97
2022-12-18T00:26:36.305Z,97.19
2022-12-18T00:27:36.286Z,97.08
2022-12-18T00:28:36.295Z,97.08
2022-12-18T00:29:36.267Z,97.08
2022-12-18T00:30:36.280Z,96.87
2022-12-18T00:31:36.330Z,96.77
2022-12-18T00:32:36.594Z,96.66
2022-12-18T00:33:36.937Z,96.51
2022-12-18T00:34:36.528Z,96.30
2022-12-18T00:35:36.206Z,96.19
2022-12-18T00:36:36.206Z,95.67
2022-12-18T00:37:36.166Z,95.45
2022-12-18T00:38:36.174Z,95.24
2022-12-18T00:39:36.219Z,94.93
2022-12-18T00:40:36.175Z,95.18
2022-12-18T00:41:36.155Z,95.39
2022-12-18T00:42:36.353Z,95.60
2022-12-18T00:43:36.433Z,95.71
2022-12-18T00:44:36.405Z,95.39
2022-12-18T00:45:36.146Z,95.18
2022-12-18T00:46:36.120Z,95.54
2022-12-18T00:47:36.288Z,95.75
2022-12-18T00:48:36.405Z,95.86
2022-12-18T00:49:36.086Z,95.75
2022-12-18T00:50:36.040Z,95.86
2022-12-18T00:51:36.344Z,96.07
2022-12-18T00:52:36.036Z,96.28
2022-12-18T00:53:36.368Z,96.00
2022-12-18T00:54:36.027Z,95.79
2022-12-18T00:55:35.986Z,96.11
2022-12-18T00:56:39.389Z,96.64
2022-12-18T00:57:36.996Z,97.06
2022-12-18T00:58:35.997Z,97.17
2022-12-18T00:59:36.299Z,97.27
2022-12-18T01:00:36.021Z,97.06
2022-12-18T01:01:36.071Z,97.06
2022-12-18T01:02:36.343Z,97.00
2022-12-18T01:03:36.576Z,97.42
2022-12-18T01:04:35.924Z,97.85
2022-12-18T01:05:35.936Z,97.95
2022-12-18T01:06:35.894Z,97.95
2022-12-18T01:07:35.922Z,97.95
2022-12-18T01:08:36.102Z,98.06
2022-12-18T01:09:35.887Z,98.27
2022-12-18T01:10:35.897Z,98.27
2022-12-18T01:11:35.857Z,98.12
2022-12-18T01:12:36.096Z,98.12
2022-12-18T01:13:36.313Z,97.80
2022-12-18T01:14:36.088Z,97.49
2022-12-18T01:15:35.857Z,97.49
2022-12-18T01:16:35.954Z,97.49
2022-12-18T01:17:35.806Z,97.13
2022-12-18T01:18:36.191Z,96.70
2022-12-18T01:19:35.777Z,96.59
2022-12-18T01:20:35.992Z,96.28
2022-12-18T01:21:36.016Z,96.28
2022-12-18T01:22:36.016Z,96.49
2022-12-18T01:23:35.986Z,96.28
2022-12-18T01:24:35.726Z,95.96
2022-12-18T01:25:35.701Z,95.64
2022-12-18T01:26:35.698Z,95.86
2022-12-18T01:27:35.707Z,95.64
2022-12-18T01:28:35.693Z,95.64
2022-12-18T01:29:35.956Z,95.64
2022-12-18T01:30:35.663Z,95.75
2022-12-18T01:31:35.771Z,95.54
2022-12-18T01:32:35.689Z,95.43
2022-12-18T01:33:35.961Z,95.48
2022-12-18T01:34:35.939Z,95.79
2022-12-18T01:35:35.586Z,95.69
2022-12-18T01:36:35.610Z,95.69
2022-12-18T01:37:35.579Z,95.69
2022-12-18T01:38:35.664Z,96.00
2022-12-18T01:39:35.667Z,96.11
2022-12-18T01:40:35.823Z,96.15
2022-12-18T01:41:35.606Z,96.15
2022-12-18T01:42:35.546Z,96.15
2022-12-18T01:43:35.980Z,96.20
2022-12-18T01:44:35.569Z,96.83
2022-12-18T01:45:35.569Z,96.94
2022-12-18T01:46:35.742Z,97.15
2022-12-18T01:47:36.754Z,97.25
2022-12-18T01:48:35.484Z,97.67
2022-12-18T01:49:35.545Z,97.78
2022-12-18T01:50:35.501Z,97.89
2022-12-18T01:51:35.488Z,97.99
2022-12-18T01:52:35.670Z,97.99
2022-12-18T01:53:35.748Z,98.10
2022-12-18T01:54:35.500Z,98.10
2022-12-18T01:55:35.411Z,97.89
2022-12-18T01:56:35.519Z,97.74
2022-12-18T01:57:35.407Z,97.74
2022-12-18T01:58:35.452Z,97.74
2022-12-18T01:59:35.473Z,97.15
2022-12-18T02:00:35.390Z,97.36
2022-12-18T02:01:35.504Z,97.67
2022-12-18T02:02:35.479Z,97.67
2022-12-18T02:03:35.723Z,97.89
2022-12-18T02:04:35.429Z,97.78
2022-12-18T02:05:35.298Z,97.78
2022-12-18T02:06:35.349Z,97.78
2022-12-18T02:07:35.332Z,97.78
2022-12-18T02:08:35.347Z,97.78
2022-12-18T02:09:35.492Z,97.67
2022-12-18T02:10:35.263Z,97.74
2022-12-18T02:11:35.322Z,97.63
2022-12-18T02:12:35.259Z,97.31
2022-12-18T02:13:35.564Z,97.00
2022-12-18T02:14:35.262Z,96.58
2022-12-18T02:15:35.260Z,96.79
2022-12-18T02:16:35.274Z,96.89
2022-12-18T02:17:35.253Z,96.89
2022-12-18T02:18:35.200Z,96.73
2022-12-18T02:19:35.423Z,96.94
2022-12-18T02:20:35.449Z,97.15
2022-12-18T02:21:35.151Z,97.57
2022-12-18T02:22:35.228Z,97.78
2022-12-18T02:23:35.242Z,97.89
2022-12-18T02:24:35.121Z,97.99
2022-12-18T02:25:35.219Z,98.21
2022-12-18T02:26:35.352Z,98.31
2022-12-18T02:27:35.121Z,97.99
2022-12-18T02:28:35.832Z,97.89
2022-12-18T02:29:35.093Z,97.72
2022-12-18T02:30:35.138Z,97.72
2022-12-18T02:31:35.074Z,98.08
2022-12-18T02:32:35.300Z,98.61
2022-12-18T02:33:35.144Z,99.31
2022-12-18T02:34:35.032Z,99.73
2022-12-18T02:35:35.049Z,99.73
2022-12-18T02:36:35.031Z,99.63
2022-12-18T02:37:34.981Z,99.10
2022-12-18T02:38:35.003Z,98.88
2022-12-18T02:39:35.287Z,98.84
2022-12-18T02:40:35.014Z,98.84
2022-12-18T02:41:34.973Z,98.84
2022-12-18T02:42:34.947Z,98.74
2022-12-18T02:43:34.996Z,98.84
2022-12-18T02:44:34.935Z,98.84
2022-12-18T02:45:35.002Z,98.74
2022-12-18T02:46:35.017Z,98.63
2022-12-18T02:47:34.886Z,98.48
2022-12-18T02:48:34.865Z,98.16
2022-12-18T02:49:35.085Z,97.95
2022-12-18T02:50:35.136Z,97.63
2022-12-18T02:51:34.900Z,97.63
2022-12-18T02:52:34.883Z,97.53
2022-12-18T02:53:34.818Z,97.21
2022-12-18T02:54:34.838Z,97.25
2022-12-18T02:55:34.845Z,97.47
2022-12-18T02:56:34.815Z,97.67
2022-12-18T02:57:34.836Z,97.78
2022-12-18T02:58:35.054Z,97.57
2022-12-18T02:59:34.797Z,97.78
2022-12-18T03:00:34.788Z,97.89
2022-12-18T03:01:34.902Z,97.78
2022-12-18T03:02:34.866Z,97.25
2022-12-18T03:03:34.782Z,97.36
2022-12-18T03:04:34.759Z,97.36
2022-12-18T03:05:34.714Z,97.19
2022-12-18T03:06:35.015Z,97.61
2022-12-18T03:07:34.693Z,98.08
2022-12-18T03:08:34.758Z,98.40
2022-12-18T03:09:34.801Z,98.40
2022-12-18T03:10:34.817Z,98.40
2022-12-18T03:11:35.359Z,98.66
2022-12-18T03:12:34.862Z,99.25
2022-12-18T03:13:34.658Z,99.46
2022-12-18T03:14:34.673Z,99.35
2022-12-18T03:15:34.640Z,99.25
2022-12-18T03:16:34.622Z,99.57
2022-12-18T03:17:34.621Z,99.52
2022-12-18T03:18:34.876Z,99.31
2022-12-18T03:19:34.565Z,98.88
2022-12-18T03:20:34.555Z,98.78
2022-12-18T03:21:34.588Z,98.84
2022-12-18T03:22:34.579Z,98.84
2022-12-18T03:23:34.798Z,98.42
2022-12-18T03:24:34.818Z,97.89
2022-12-18T03:25:34.535Z,97.57
2022-12-18T03:26:34.515Z,97.47
2022-12-18T03:27:34.534Z,97.11
2022-12-18T03:28:34.736Z,96.94
2022-12-18T03:29:34.538Z,96.62
2022-12-18T03:30:34.805Z,96.68
2022-12-18T03:31:34.452Z,96.30
2022-12-18T03:32:34.501Z,96.20
2022-12-18T03:33:34.457Z,96.30
2022-12-18T03:34:34.460Z,96.51
2022-12-18T03:35:34.407Z,96.20
2022-12-18T03:36:34.447Z,96.09
2022-12-18T03:37:34.695Z,96.41
2022-12-18T03:38:34.461Z,96.51
2022-12-18T03:39:34.405Z,96.62
2022-12-18T03:40:34.421Z,96.62
2022-12-18T03:41:34.413Z,96.51
2022-12-18T03:42:34.417Z,96.30
2022-12-18T03:43:34.628Z,96.24
2022-12-18T03:44:34.377Z,96.56
2022-12-18T03:45:34.359Z,96.66
2022-12-18T03:46:34.368Z,96.56
2022-12-18T03:47:34.421Z,96.66
2022-12-18T03:48:34.347Z,97.09
2022-12-18T03:49:34.540Z,97.51
2022-12-18T03:50:34.277Z,97.51
2022-12-18T03:51:34.259Z,96.98
2022-12-18T03:52:34.268Z,96.88
2022-12-18T03:53:34.473Z,96.77
2022-12-18T03:54:34.499Z,96.77
2022-12-18T03:55:34.208Z,96.98
2022-12-18T03:56:34.203Z,97.19
2022-12-18T03:57:34.248Z,97.19
2022-12-18T03:58:34.214Z,97.09
2022-12-18T03:59:34.232Z,96.56
2022-12-18T04:00:34.431Z,96.30
2022-12-18T04:01:34.317Z,95.50
2022-12-18T04:02:34.314Z,95.71
2022-12-18T04:03:36.402Z,95.71
2022-12-18T04:04:34.124Z,95.82
2022-12-18T04:05:34.201Z,95.82
2022-12-18T04:06:34.259Z,95.92
2022-12-18T04:07:34.154Z,96.03
2022-12-18T04:08:34.408Z,95.98
2022-12-18T04:09:34.088Z,96.09
2022-12-18T04:10:34.148Z,95.78
2022-12-18T04:11:34.400Z,95.03
2022-12-18T04:12:34.075Z,94.82
2022-12-18T04:13:34.103Z,94.93
2022-12-18T04:14:34.809Z,95.03
2022-12-18T04:15:34.040Z,95.14
2022-12-18T04:16:34.007Z,95.25
2022-12-18T04:17:34.311Z,95.14
2022-12-18T04:18:34.008Z,94.93
2022-12-18T04:19:34.047Z,94.76
2022-12-18T04:20:34.082Z,95.07
2022-12-18T04:21:33.966Z,95.29
2022-12-18T04:22:34.008Z,95.29
2022-12-18T04:23:34.239Z,95.39
2022-12-18T04:24:33.973Z,95.54
2022-12-18T04:25:33.979Z,95.65
2022-12-18T04:26:33.963Z,95.97
2022-12-18T04:27:33.981Z,96.18
2022-12-18T04:28:33.891Z,96.45
2022-12-18T04:29:34.191Z,96.34
2022-12-18T04:30:33.901Z,96.03
2022-12-18T04:31:33.939Z,95.82
2022-12-18T04:32:33.911Z,95.50
2022-12-18T04:33:34.127Z,95.44
2022-12-18T04:34:34.267Z,95.76
2022-12-18T04:35:33.851Z,96.08
2022-12-18T04:36:33.830Z,96.22
2022-12-18T04:37:33.858Z,96.75
2022-12-18T04:38:33.828Z,97.07
2022-12-18T04:39:34.110Z,97.07
2022-12-18T04:40:33.793Z,97.17
2022-12-18T04:41:34.060Z,97.24
2022-12-18T04:42:34.122Z,97.03
2022-12-18T04:43:33.761Z,96.81
2022-12-18T04:44:33.841Z,96.81
2022-12-18T04:45:33.767Z,96.66
2022-12-18T04:46:33.781Z,96.34
2022-12-18T04:47:34.031Z,96.14
2022-12-18T04:48:33.715Z,95.71
2022-12-18T04:49:33.743Z,95.07
2022-12-18T04:50:33.704Z,95.07
2022-12-18T04:51:33.760Z,95.07
2022-12-18T04:52:33.693Z,94.97
2022-12-18T04:53:33.911Z,94.76
2022-12-18T04:54:33.936Z,94.51
2022-12-18T04:55:33.779Z,94.23
2022-12-18T04:56:33.667Z,94.02
2022-12-18T04:57:33.708Z,94.02
2022-12-18T04:58:33.890Z,94.13
2022-12-18T04:59:33.639Z,94.34
2022-12-18T05:00:33.655Z,94.65
2022-12-18T05:01:34.938Z,94.65
2022-12-18T05:02:33.682Z,94.76
2022-12-18T05:03:33.842Z,94.76
2022-12-18T05:04:33.553Z,94.76
2022-12-18T05:05:33.796Z,95.12
2022-12-18T05:06:33.580Z,95.12
2022-12-18T05:07:33.618Z,95.12
2022-12-18T05:08:33.507Z,95.44
2022-12-18T05:09:33.522Z,95.76
2022-12-18T05:10:38.012Z,95.90
2022-12-18T05:11:34.823Z,96.01
2022-12-18T05:12:33.500Z,96.33
2022-12-18T05:13:33.475Z,96.75
2022-12-18T05:14:33.483Z,97.17
2022-12-18T05:15:33.493Z,97.17
2022-12-18T05:16:33.513Z,97.28
2022-12-18T05:17:33.507Z,97.39
2022-12-18T05:18:33.664Z,97.34
2022-12-18T05:19:33.434Z,97.13
2022-12-18T05:20:33.389Z,97.24
2022-12-18T05:21:33.700Z,97.34
2022-12-18T05:22:33.372Z,97.19
2022-12-18T05:23:33.343Z,96.88
2022-12-18T05:24:33.369Z,96.77
2022-12-18T05:25:33.378Z,96.34
2022-12-18T05:26:33.443Z,95.86
2022-12-18T05:27:33.323Z,96.28
2022-12-18T05:28:33.364Z,96.71
2022-12-18T05:29:33.358Z,96.77
2022-12-18T05:30:33.304Z,96.77
2022-12-18T05:31:39.524Z,96.77
2022-12-18T05:32:34.285Z,96.66
2022-12-18T05:33:33.298Z,96.66
2022-12-18T05:34:33.245Z,96.77
2022-12-18T05:35:33.325Z,96.77
2022-12-18T05:36:33.239Z,96.50
2022-12-18T05:37:35.871Z,96.86
2022-12-18T05:38:34.566Z,97.39
2022-12-18T05:39:33.494Z,97.71
2022-12-18T05:40:33.254Z,98.02
2022-12-18T05:41:33.702Z,98.34
2022-12-18T05:42:33.240Z,98.55
2022-12-18T05:43:33.451Z,98.34
2022-12-18T05:44:33.391Z,98.76
2022-12-18T05:45:33.207Z,98.82
2022-12-18T05:46:33.228Z,98.82
2022-12-18T05:47:33.454Z,98.46
2022-12-18T05:48:33.137Z,98.36
2022-12-18T05:49:33.416Z,98.04
2022-12-18T05:50:33.396Z,97.51
2022-12-18T05:51:33.144Z,97.51
2022-12-18T05:52:33.088Z,97.30
2022-12-18T05:53:33.373Z,97.19
2022-12-18T05:54:33.087Z,97.51
2022-12-18T05:55:33.065Z,97.72
2022-12-18T05:56:33.057Z,97.83
2022-12-18T05:57:33.348Z,97.83
2022-12-18T05:58:33.070Z,97.72
2022-12-18T05:59:33.318Z,97.51
2022-12-18T06:00:32.998Z,97.93
2022-12-18T06:01:33.079Z,98.04
2022-12-18T06:02:33.255Z,97.72
2022-12-18T06:03:34.149Z,97.67
2022-12-18T06:04:33.234Z,97.67
2022-12-18T06:05:32.977Z,97.25
2022-12-18T06:06:32.987Z,96.77
2022-12-18T06:07:32.949Z,96.88
2022-12-18T06:08:32.983Z,96.88
2022-12-18T06:09:32.940Z,97.09
2022-12-18T06:10:33.157Z,97.15
2022-12-18T06:11:32.888Z,97.15
2022-12-18T06:12:32.893Z,96.94
2022-12-18T06:13:32.884Z,96.94
2022-12-18T06:14:33.190Z,96.51
2022-12-18T06:15:32.856Z,96.20
2022-12-18T06:16:33.125Z,95.88
2022-12-18T06:17:32.860Z,95.88
2022-12-18T06:18:32.864Z,96.30
2022-12-18T06:19:33.186Z,96.51
2022-12-18T06:20:33.838Z,96.51
2022-12-18T06:21:32.837Z,96.30
2022-12-18T06:22:32.809Z,96.20
2022-12-18T06:23:33.109Z,96.30
2022-12-18T06:24:33.042Z,96.41
2022-12-18T06:25:32.797Z,96.41
2022-12-18T06:26:32.912Z,96.51
2022-12-18T06:27:32.692Z,96.30
2022-12-18T06:28:32.990Z,96.20
2022-12-18T06:29:32.978Z,96.20
2022-12-18T06:30:32.738Z,96.41
2022-12-18T06:31:33.179Z,96.41
2022-12-18T06:32:32.709Z,96.20
2022-12-18T06:33:32.647Z,96.09
2022-12-18T06:34:32.919Z,96.20
2022-12-18T06:35:32.659Z,96.20
2022-12-18T06:36:33.119Z,95.98
2022-12-18T06:37:32.689Z,96.09
2022-12-18T06:38:32.689Z,96.20
2022-12-18T06:39:32.648Z,96.30
2022-12-18T06:40:32.572Z,96.09
2022-12-18T06:41:32.710Z,96.09
2022-12-18T06:42:32.621Z,95.78
2022-12-18T06:43:32.856Z,95.78
2022-12-18T06:44:32.732Z,95.98
2022-12-18T06:45:32.887Z,96.09
2022-12-18T06:46:32.502Z,95.88
2022-12-18T06:47:32.550Z,95.78
2022-12-18T06:48:32.459Z,95.78
2022-12-18T06:49:32.488Z,95.67
2022-12-18T06:50:32.680Z,95.56
2022-12-18T06:51:32.491Z,95.61
2022-12-18T06:52:32.507Z,96.03
2022-12-18T06:53:32.719Z,96.24
2022-12-18T06:54:32.445Z,96.34
2022-12-18T06:55:32.393Z,96.45
2022-12-18T06:56:32.428Z,96.41
2022-12-18T06:57:32.379Z,96.51
2022-12-18T06:58:32.428Z,96.41
2022-12-18T06:59:32.470Z,96.30
2022-12-18T07:00:32.399Z,96.09
2022-12-18T07:01:32.476Z,95.71
2022-12-18T07:02:32.476Z,95.92
2022-12-18T07:03:32.330Z,96.34
2022-12-18T07:04:32.320Z,96.14
2022-12-18T07:05:32.339Z,96.28
2022-12-18T07:06:32.310Z,97.03
2022-12-18T07:07:32.338Z,97.51
2022-12-18T07:08:32.291Z,97.61
2022-12-18T07:09:32.997Z,97.41
2022-12-18T07:10:32.309Z,96.88
2022-12-18T07:11:32.299Z,96.66
2022-12-18T07:12:32.233Z,96.77
2022-12-18T07:13:32.541Z,96.73
2022-12-18T07:14:32.234Z,96.62
2022-12-18T07:15:32.563Z,96.41
2022-12-18T07:16:32.236Z,96.41
2022-12-18T07:17:32.213Z,96.09
2022-12-18T07:18:32.191Z,95.88
2022-12-18T07:19:32.160Z,95.88
2022-12-18T07:20:32.178Z,95.46
2022-12-18T07:21:32.170Z,95.46
2022-12-18T07:22:32.144Z,95.03
2022-12-18T07:23:32.221Z,95.35
2022-12-18T07:24:32.140Z,95.67
2022-12-18T07:25:32.121Z,95.88
2022-12-18T07:26:32.100Z,95.98
2022-12-18T07:27:32.101Z,96.24
2022-12-18T07:28:32.129Z,96.41
2022-12-18T07:29:32.070Z,96.62
2022-12-18T07:30:32.063Z,96.51
2022-12-18T07:31:32.382Z,96.30
2022-12-18T07:32:32.041Z,96.09
2022-12-18T07:33:32.050Z,95.67
2022-12-18T07:34:32.064Z,95.46
2022-12-18T07:35:32.285Z,95.35
2022-12-18T07:36:32.251Z,95.14
2022-12-18T07:37:31.990Z,95.03
2022-12-18T07:38:31.971Z,95.03
2022-12-18T07:39:31.982Z,95.14
2022-12-18T07:40:31.943Z,95.46
2022-12-18T07:41:32.218Z,95.46
2022-12-18T07:42:32.002Z,95.35
2022-12-18T07:43:32.217Z,95.35
2022-12-18T07:44:31.965Z,95.35
2022-12-18T07:45:32.686Z,95.35
2022-12-18T07:46:31.913Z,95.20
2022-12-18T07:47:31.914Z,94.99
2022-12-18T07:48:31.911Z,94.89
2022-12-18T07:49:32.153Z,94.57
2022-12-18T07:50:31.874Z,94.46
2022-12-18T07:51:32.156Z,94.36
2022-12-18T07:52:31.950Z,94.21
2022-12-18T07:53:32.629Z,94.21
2022-12-18T07:54:32.101Z,94.21
2022-12-18T07:55:59.997Z,93.89
2022-12-18T07:56:32.803Z,93.79
2022-12-18T07:57:50.119Z,93.79
2022-12-18T07:58:32.904Z,93.79
2022-12-18T07:59:31.861Z,93.68
2022-12-18T08:00:32.055Z,93.83
2022-12-18T08:01:31.966Z,94.04
2022-12-18T08:02:32.105Z,94.15
2022-12-18T08:03:31.775Z,94.25
2022-12-18T08:04:32.074Z,94.15
2022-12-18T08:05:31.704Z,94.36
2022-12-18T08:06:31.714Z,94.57
2022-12-18T08:07:31.741Z,94.42
2022-12-18T08:08:31.743Z,94.21
2022-12-18T08:09:31.714Z,94.25
2022-12-18T08:10:31.749Z,94.36
2022-12-18T08:11:31.670Z,94.36
2022-12-18T08:12:31.671Z,94.32
2022-12-18T08:13:31.696Z,94.21
2022-12-18T08:14:32.179Z,94.21
2022-12-18T08:15:31.873Z,94.10
2022-12-18T08:16:31.701Z,94.21
2022-12-18T08:17:31.630Z,94.10
2022-12-18T08:18:31.618Z,93.79
2022-12-18T08:19:31.674Z,93.57
2022-12-18T08:20:31.589Z,93.57
2022-12-18T08:21:31.804Z,93.73
2022-12-18T08:22:31.862Z,93.87
2022-12-18T08:23:31.547Z,94.40
2022-12-18T08:24:31.526Z,94.72
2022-12-18T08:25:31.533Z,94.82
2022-12-18T08:26:31.559Z,94.82
2022-12-18T08:27:31.531Z,95.25
2022-12-18T08:28:31.755Z,95.14
2022-12-18T08:29:31.841Z,94.93
2022-12-18T08:30:31.601Z,94.89
2022-12-18T08:31:31.608Z,94.57
2022-12-18T08:32:31.505Z,94.36
2022-12-18T08:33:31.497Z,94.46
2022-12-18T08:34:31.460Z,94.25
2022-12-18T08:35:36.362Z,94.46
2022-12-18T08:36:32.426Z,94.32
2022-12-18T08:37:31.517Z,94.00
2022-12-18T08:38:31.436Z,94.00
2022-12-18T08:39:31.708Z,93.89
2022-12-18T08:40:31.389Z,93.79
2022-12-18T08:41:31.337Z,93.79
2022-12-18T08:42:32.183Z,94.00
2022-12-18T08:43:31.346Z,93.89
2022-12-18T08:44:31.367Z,93.79
2022-12-18T08:45:31.419Z,93.79
2022-12-18T08:46:31.349Z,93.89
2022-12-18T08:47:31.576Z,94.10
2022-12-18T08:48:31.317Z,94.32
2022-12-18T08:49:31.592Z,94.21
2022-12-18T08:50:31.291Z,94.00
2022-12-18T08:51:31.508Z,93.89
2022-12-18T08:52:31.269Z,93.68
2022-12-18T08:53:35.465Z,93.79
2022-12-18T08:54:31.217Z,94.00
2022-12-18T08:55:31.236Z,94.10
2022-12-18T08:56:31.525Z,94.00
2022-12-18T08:57:31.385Z,93.79
2022-12-18T08:58:31.248Z,93.89
2022-12-18T08:59:31.458Z,93.68
2022-12-18T09:00:31.161Z,93.57
2022-12-18T09:01:31.458Z,93.68
2022-12-18T09:02:31.476Z,93.68
2022-12-18T09:03:31.497Z,93.79
2022-12-18T09:04:31.148Z,93.89
2022-12-18T09:05:31.456Z,93.74
2022-12-18T09:06:31.156Z,93.64
2022-12-18T09:07:31.175Z,93.54
2022-12-18T09:08:31.132Z,93.74
2022-12-18T09:09:31.120Z,93.43
2022-12-18T09:10:31.131Z,93.54
2022-12-18T09:11:31.818Z,93.60
2022-12-18T09:12:31.108Z,93.07
2022-12-18T09:13:31.044Z,92.65
2022-12-18T09:14:31.332Z,92.65
2022-12-18T09:15:31.043Z,92.76
2022-12-18T09:16:32.733Z,92.22
2022-12-18T09:17:31.333Z,92.54
2022-12-18T09:18:31.019Z,92.76
2022-12-18T09:19:30.993Z,92.79
2022-12-18T09:20:31.019Z,93.22
2022-12-18T09:21:30.986Z,93.28
2022-12-18T09:22:30.974Z,93.28
2022-12-18T09:23:30.954Z,92.96
2022-12-18T09:24:30.961Z,92.50
2022-12-18T09:25:31.214Z,92.18
2022-12-18T09:26:31.221Z,91.76
2022-12-18T09:27:30.924Z,91.66
2022-12-18T09:28:30.914Z,91.24
2022-12-18T09:29:31.219Z,91.44
2022-12-18T09:30:30.950Z,91.24
2022-12-18T09:31:31.121Z,91.02
2022-12-18T09:32:31.154Z,91.28
2022-12-18T09:33:31.196Z,91.80
2022-12-18T09:34:30.891Z,91.97
2022-12-18T09:35:30.864Z,91.97
2022-12-18T09:36:30.879Z,91.44
2022-12-18T09:37:31.037Z,91.34
2022-12-18T09:38:30.846Z,91.24
2022-12-18T09:39:30.803Z,91.34
2022-12-18T09:40:30.913Z,91.55
2022-12-18T09:41:30.781Z,91.24
2022-12-18T09:42:30.792Z,91.09
2022-12-18T09:43:31.013Z,91.19
2022-12-18T09:44:30.906Z,91.30
2022-12-18T09:45:30.711Z,91.51
2022-12-18T09:46:30.846Z,91.51
2022-12-18T09:47:30.702Z,91.83
2022-12-18T09:48:30.721Z,91.83
2022-12-18T09:49:30.690Z,91.93
2022-12-18T09:50:31.486Z,91.51
2022-12-18T09:51:30.951Z,91.41
2022-12-18T09:52:30.967Z,91.51
2022-12-18T09:53:30.669Z,91.61
2022-12-18T09:54:30.681Z,91.93
2022-12-18T09:55:36.696Z,92.35
2022-12-18T09:56:31.627Z,92.35
2022-12-18T09:57:30.591Z,92.63
2022-12-18T09:58:30.594Z,92.63
2022-12-18T09:59:30.903Z,92.73
2022-12-18T10:00:30.648Z,92.73
2022-12-18T10:01:41.368Z,92.63
2022-12-18T10:02:32.035Z,92.63
2022-12-18T10:03:30.814Z,92.41
2022-12-18T10:04:30.630Z,92.52
2022-12-18T10:05:30.538Z,92.48
2022-12-18T10:06:30.888Z,92.58
2022-12-18T10:07:30.546Z,92.63
2022-12-18T10:08:30.795Z,92.84
2022-12-18T10:09:30.563Z,92.84
2022-12-18T10:10:30.735Z,92.94
2022-12-18T10:11:30.482Z,93.11
2022-12-18T10:12:30.560Z,93.22
2022-12-18T10:13:30.513Z,93.22
2022-12-18T10:14:30.512Z,93.11
2022-12-18T10:15:30.763Z,92.90
2022-12-18T10:16:30.721Z,92.80
2022-12-18T10:17:30.397Z,92.90
2022-12-18T10:18:30.400Z,93.32
2022-12-18T10:19:30.512Z,93.43
2022-12-18T10:20:30.414Z,93.28
2022-12-18T10:21:30.661Z,93.07
2022-12-18T10:22:30.355Z,92.86
2022-12-18T10:23:30.385Z,92.86
2022-12-18T10:24:30.374Z,92.96
2022-12-18T10:25:30.453Z,93.07
2022-12-18T10:26:31.444Z,93.22
2022-12-18T10:27:30.604Z,93.64
2022-12-18T10:28:30.564Z,94.06
2022-12-18T10:29:30.335Z,94.17
2022-12-18T10:30:30.352Z,94.27
2022-12-18T10:31:30.394Z,94.48
2022-12-18T10:32:30.267Z,94.48
2022-12-18T10:33:30.291Z,94.44
2022-12-18T10:34:30.275Z,94.54
2022-12-18T10:35:30.491Z,94.54
2022-12-18T10:36:30.228Z,94.44
2022-12-18T10:37:30.237Z,94.44
2022-12-18T10:38:30.226Z,94.54
2022-12-18T10:39:30.208Z,94.50
2022-12-18T10:40:30.408Z,94.40
2022-12-18T10:41:30.198Z,94.18
2022-12-18T10:42:31.179Z,94.08
2022-12-18T10:43:30.191Z,93.87
2022-12-18T10:44:30.147Z,93.66
2022-12-18T10:45:30.177Z,93.76
2022-12-18T10:46:30.352Z,93.98
2022-12-18T10:47:30.096Z,94.08
2022-12-18T10:48:30.119Z,94.08
2022-12-18T10:49:30.088Z,94.08
2022-12-18T10:50:47.138Z,94.14
2022-12-18T10:51:31.627Z,93.98
2022-12-18T10:52:30.298Z,94.08
2022-12-18T10:53:30.058Z,94.40
2022-12-18T10:54:30.330Z,94.50
2022-12-18T10:55:30.304Z,94.44
2022-12-18T10:56:30.009Z,94.54
2022-12-18T10:57:30.049Z,95.18
2022-12-18T10:58:30.066Z,95.39
2022-12-18T10:59:30.002Z,95.60
2022-12-18T11:00:30.034Z,96.08
2022-12-18T11:01:30.105Z,95.55
2022-12-18T11:02:30.493Z,95.03
2022-12-18T11:03:29.980Z,94.71
2022-12-18T11:04:29.962Z,94.50
2022-12-18T11:05:29.994Z,94.40
2022-12-18T11:06:30.026Z,94.50
2022-12-18T11:07:29.960Z,94.50
2022-12-18T11:08:30.214Z,94.54
2022-12-18T11:09:29.975Z,94.86
2022-12-18T11:10:29.914Z,94.96
2022-12-18T11:11:29.887Z,95.18
2022-12-18T11:12:30.158Z,95.28
2022-12-18T11:13:29.858Z,95.28
2022-12-18T11:14:29.834Z,95.64
2022-12-18T11:15:29.860Z,95.85
2022-12-18T11:16:30.093Z,96.02
2022-12-18T11:17:29.815Z,96.02
2022-12-18T11:18:29.912Z,96.12
2022-12-18T11:19:29.812Z,96.12
2022-12-18T11:20:30.061Z,96.02
2022-12-18T11:21:29.851Z,95.91
2022-12-18T11:22:29.798Z,95.60
2022-12-18T11:23:29.777Z,95.28
2022-12-18T11:24:29.749Z,95.39
2022-12-18T11:25:33.430Z,95.39
2022-12-18T11:26:29.960Z,95.28
2022-12-18T11:27:29.730Z,95.39
2022-12-18T11:28:29.697Z,95.60
2022-12-18T11:29:29.709Z,95.60
2022-12-18T11:30:29.699Z,95.39
2022-12-18T11:31:29.802Z,95.24
2022-12-18T11:32:29.994Z,94.92
2022-12-18T11:33:29.681Z,94.71
2022-12-18T11:34:30.350Z,94.60
2022-12-18T11:35:29.686Z,94.71
2022-12-18T11:36:29.638Z,94.82
2022-12-18T11:37:29.879Z,94.71
2022-12-18T11:38:29.853Z,94.60
2022-12-18T11:39:29.675Z,94.71
2022-12-18T11:40:29.582Z,94.60
2022-12-18T11:41:29.636Z,94.60
2022-12-18T11:42:29.562Z,94.40
2022-12-18T11:43:29.561Z,94.18
2022-12-18T11:44:29.807Z,94.18
2022-12-18T11:45:29.850Z,94.18
2022-12-18T11:46:29.818Z,94.08
2022-12-18T11:47:29.574Z,93.76
2022-12-18T11:48:29.499Z,93.76
2022-12-18T11:49:29.692Z,93.76
2022-12-18T11:50:29.523Z,93.55
2022-12-18T11:51:29.722Z,93.70
2022-12-18T11:52:30.340Z,94.12
2022-12-18T11:53:29.447Z,94.34
2022-12-18T11:54:29.522Z,94.54
2022-12-18T11:55:29.435Z,94.76
2022-12-18T11:56:29.642Z,94.96
2022-12-18T11:57:29.686Z,95.18
2022-12-18T11:58:31.513Z,95.07
2022-12-18T11:59:29.421Z,95.07
2022-12-18T12:00:29.508Z,94.76
2022-12-18T12:01:29.802Z,94.76
2022-12-18T12:02:29.518Z,94.86
2022-12-18T12:03:29.531Z,94.76
2022-12-18T12:04:29.714Z,94.65
2022-12-18T12:05:29.396Z,94.54
2022-12-18T12:06:29.344Z,94.76
2022-12-18T12:07:29.332Z,94.96
2022-12-18T12:08:29.324Z,94.86
2022-12-18T12:09:29.592Z,94.76
2022-12-18T12:10:29.343Z,94.54
2022-12-18T12:11:29.293Z,94.44
2022-12-18T12:12:29.249Z,94.34
2022-12-18T12:13:29.282Z,94.23
2022-12-18T12:14:29.256Z,94.23
2022-12-18T12:15:29.460Z,94.54
2022-12-18T12:16:29.521Z,94.76
2022-12-18T12:17:29.210Z,94.76
2022-12-18T12:18:29.236Z,94.54
2022-12-18T12:19:29.242Z,94.44
2022-12-18T12:20:33.524Z,94.44
2022-12-18T12:21:30.183Z,94.40
2022-12-18T12:22:29.223Z,94.02
2022-12-18T12:23:29.184Z,94.18
2022-12-18T12:24:29.262Z,94.18
2022-12-18T12:25:29.135Z,93.98
2022-12-18T12:26:29.126Z,93.87
2022-12-18T12:27:29.333Z,93.98
2022-12-18T12:28:29.332Z,93.87
2022-12-18T12:29:29.268Z,93.98
2022-12-18T12:30:29.144Z,93.66
2022-12-18T12:31:29.202Z,93.66
2022-12-18T12:32:29.067Z,93.66
2022-12-18T12:33:29.066Z,93.76
2022-12-18T12:34:29.191Z,94.08
2022-12-18T12:35:29.337Z,94.18
2022-12-18T12:36:29.086Z,93.87
2022-12-18T12:37:29.085Z,93.76
2022-12-18T12:38:29.062Z,93.87
2022-12-18T12:39:29.009Z,94.08
2022-12-18T12:41:29.987Z,93.66
2022-12-18T12:42:29.224Z,93.55
2022-12-18T12:43:28.959Z,93.55
2022-12-18T12:44:29.029Z,93.34
2022-12-18T12:45:28.971Z,93.03
2022-12-18T12:46:28.939Z,92.82
2022-12-18T12:47:28.906Z,92.92
2022-12-18T12:48:28.911Z,93.24
2022-12-18T12:49:28.941Z,93.34
2022-12-18T12:50:28.897Z,93.45
2022-12-18T12:51:28.849Z,93.45
2022-12-18T12:52:29.071Z,93.34
2022-12-18T12:53:28.847Z,93.45